Portada
METAR-TAF:

METAR-TAF

Aeroports :

Kosrae, Micronèsia

latitud: 05-21N, longitud: 162-57E, altitud: 3 m

Observació

L'informe es va fer fa 40 minuts, a les 00:50 UTC
Vent 12 kt del Est/Nord-Est
Temperatura 31°C
Humitat 66%
Pressió 1010 hPa
Visibilitat: 16.1 km
Núvols disperses a una alçada de 2000 ft, Cumulus congestus.
Núvols disperses a una alçada de 13000 ft
Cel ennuvolat a una alçada de 30000 ft

METAR: PTSA 160050Z 06012KT 10SM SCT020TCU SCT130 BKN300 31/24 A2982 RMK TCU SW

Hora: 12:30 (01:30 UTC)

Pronòstic

L'informe es va fer fa 1 hora i 48 minuts, a les 23:42 UTC
Pronòstic vàlid del 16 a les 00 UTC al 16 a les 24 UTC
Vent 6 kt amb direcció variable
Visibilitat: 10 km
Núvols disperses a una alçada de 2000 ft
Núvols disperses a una alçada de 14000 ft
xàfecs en les proximitats

TAF: PTSA 152342Z 1600/1624 VRB06KT P6SM VCSH SCT020 SCT140

Observacions i pronòstics meteorològics de més de 4000 aeroports (METAR i TAF).

Les estacions disponibles són els punts grocs i vermells al mapa.

Posi el ratolí al punt desitjat per veure el nom de l'estació.

Feu clic per veure les observacions i els pronòstics meteorològics.

Per canviar el mapa: feu clic els botons verds amb una creu de color negre per apropar; al botó verd amb un guió per allunyar la imatge; o en les fletxes verdes per a mapes adjacents.


METAR-TAF: